sensor_id;sensor_type;location;lat;lon;timestamp;P1;durP1;ratioP1;P2;durP2;ratioP2
32894;SDS011;19251;49.484;8.260;2022-12-20T00:02:08;30.42;;;18.15;;
32894;SDS011;19251;49.484;8.260;2022-12-20T00:07:10;34.72;;;17.50;;
32894;SDS011;19251;49.484;8.260;2022-12-20T00:17:15;33.60;;;19.10;;
32894;SDS011;19251;49.484;8.260;2022-12-20T00:22:17;36.75;;;19.35;;
32894;SDS011;19251;49.484;8.260;2022-12-20T00:32:21;39.95;;;21.25;;
32894;SDS011;19251;49.484;8.260;2022-12-20T00:42:26;37.00;;;21.25;;
32894;SDS011;19251;49.484;8.260;2022-12-20T00:47:28;43.63;;;24.37;;
32894;SDS011;19251;49.484;8.260;2022-12-20T00:52:30;38.70;;;21.55;;
32894;SDS011;19251;49.484;8.260;2022-12-20T00:57:32;37.85;;;20.58;;
32894;SDS011;19251;49.484;8.260;2022-12-20T01:02:35;38.20;;;21.10;;
32894;SDS011;19251;49.484;8.260;2022-12-20T01:07:39;40.77;;;20.23;;
32894;SDS011;19251;49.484;8.260;2022-12-20T01:12:42;35.85;;;18.25;;
32894;SDS011;19251;49.484;8.260;2022-12-20T01:17:44;38.50;;;20.75;;
32894;SDS011;19251;49.484;8.260;2022-12-20T01:22:47;38.38;;;21.33;;
32894;SDS011;19251;49.484;8.260;2022-12-20T01:27:49;39.58;;;20.05;;
32894;SDS011;19251;49.484;8.260;2022-12-20T01:32:51;40.92;;;19.20;;
32894;SDS011;19251;49.484;8.260;2022-12-20T01:37:53;30.95;;;18.75;;
32894;SDS011;19251;49.484;8.260;2022-12-20T01:42:55;34.80;;;19.00;;
32894;SDS011;19251;49.484;8.260;2022-12-20T01:47:57;27.98;;;16.85;;
32894;SDS011;19251;49.484;8.260;2022-12-20T01:53:01;37.85;;;20.25;;
32894;SDS011;19251;49.484;8.260;2022-12-20T01:58:07;33.90;;;19.95;;
32894;SDS011;19251;49.484;8.260;2022-12-20T02:03:13;43.05;;;21.40;;
32894;SDS011;19251;49.484;8.260;2022-12-20T02:08:18;46.90;;;21.80;;
32894;SDS011;19251;49.484;8.260;2022-12-20T02:13:40;42.90;;;18.80;;
32894;SDS011;19251;49.484;8.260;2022-12-20T02:18:52;29.15;;;16.40;;
32894;SDS011;19251;49.484;8.260;2022-12-20T02:29:16;27.15;;;15.45;;
32894;SDS011;19251;49.484;8.260;2022-12-20T02:34:32;32.60;;;17.75;;
32894;SDS011;19251;49.484;8.260;2022-12-20T02:39:38;28.80;;;17.05;;
32894;SDS011;19251;49.484;8.260;2022-12-20T02:44:43;26.30;;;14.70;;
32894;SDS011;19251;49.484;8.260;2022-12-20T02:50:12;27.00;;;14.50;;
32894;SDS011;19251;49.484;8.260;2022-12-20T02:55:19;32.47;;;16.73;;
32894;SDS011;19251;49.484;8.260;2022-12-20T03:00:25;25.00;;;16.25;;
32894;SDS011;19251;49.484;8.260;2022-12-20T03:05:34;28.65;;;16.75;;
32894;SDS011;19251;49.484;8.260;2022-12-20T03:10:44;29.20;;;17.15;;
32894;SDS011;19251;49.484;8.260;2022-12-20T03:15:46;27.00;;;15.98;;
32894;SDS011;19251;49.484;8.260;2022-12-20T03:25:51;30.15;;;18.90;;
32894;SDS011;19251;49.484;8.260;2022-12-20T03:30:54;32.60;;;18.35;;
32894;SDS011;19251;49.484;8.260;2022-12-20T03:35:57;30.75;;;19.60;;
32894;SDS011;19251;49.484;8.260;2022-12-20T03:41:00;34.05;;;20.98;;
32894;SDS011;19251;49.484;8.260;2022-12-20T03:46:03;34.90;;;19.60;;
32894;SDS011;19251;49.484;8.260;2022-12-20T03:51:07;33.85;;;19.00;;
32894;SDS011;19251;49.484;8.260;2022-12-20T03:56:10;30.60;;;18.35;;
32894;SDS011;19251;49.484;8.260;2022-12-20T04:01:17;30.95;;;17.80;;
32894;SDS011;19251;49.484;8.260;2022-12-20T04:06:21;27.70;;;16.30;;
32894;SDS011;19251;49.484;8.260;2022-12-20T04:11:24;29.30;;;17.40;;
32894;SDS011;19251;49.484;8.260;2022-12-20T04:16:28;34.37;;;19.10;;
32894;SDS011;19251;49.484;8.260;2022-12-20T04:21:32;32.43;;;17.47;;
32894;SDS011;19251;49.484;8.260;2022-12-20T04:26:36;29.07;;;16.70;;
32894;SDS011;19251;49.484;8.260;2022-12-20T04:31:39;29.17;;;16.97;;
32894;SDS011;19251;49.484;8.260;2022-12-20T04:41:45;23.70;;;14.13;;
32894;SDS011;19251;49.484;8.260;2022-12-20T04:46:47;23.92;;;13.50;;
32894;SDS011;19251;49.484;8.260;2022-12-20T04:51:51;22.73;;;15.07;;
32894;SDS011;19251;49.484;8.260;2022-12-20T04:56:54;25.05;;;14.70;;
32894;SDS011;19251;49.484;8.260;2022-12-20T05:07:01;27.40;;;15.17;;
32894;SDS011;19251;49.484;8.260;2022-12-20T05:12:06;21.20;;;14.15;;
32894;SDS011;19251;49.484;8.260;2022-12-20T05:22:10;25.25;;;14.75;;
32894;SDS011;19251;49.484;8.260;2022-12-20T05:27:33;26.75;;;16.52;;
32894;SDS011;19251;49.484;8.260;2022-12-20T05:32:37;25.25;;;15.20;;
32894;SDS011;19251;49.484;8.260;2022-12-20T05:37:39;29.65;;;16.55;;
32894;SDS011;19251;49.484;8.260;2022-12-20T05:42:44;28.95;;;16.20;;
32894;SDS011;19251;49.484;8.260;2022-12-20T05:47:47;26.17;;;13.80;;
32894;SDS011;19251;49.484;8.260;2022-12-20T05:52:49;21.40;;;13.68;;
32894;SDS011;19251;49.484;8.260;2022-12-20T05:57:53;23.20;;;14.43;;
32894;SDS011;19251;49.484;8.260;2022-12-20T06:02:59;24.57;;;13.97;;
32894;SDS011;19251;49.484;8.260;2022-12-20T06:08:02;25.03;;;13.97;;
32894;SDS011;19251;49.484;8.260;2022-12-20T06:13:09;23.20;;;12.37;;
32894;SDS011;19251;49.484;8.260;2022-12-20T06:18:13;28.30;;;14.13;;
32894;SDS011;19251;49.484;8.260;2022-12-20T06:28:18;21.13;;;12.03;;
32894;SDS011;19251;49.484;8.260;2022-12-20T06:33:23;22.83;;;14.27;;
32894;SDS011;19251;49.484;8.260;2022-12-20T06:38:26;23.70;;;13.83;;
32894;SDS011;19251;49.484;8.260;2022-12-20T06:43:29;25.30;;;14.85;;
32894;SDS011;19251;49.484;8.260;2022-12-20T06:48:31;27.73;;;13.85;;
32894;SDS011;19251;49.484;8.260;2022-12-20T06:53:33;26.77;;;13.02;;
32894;SDS011;19251;49.484;8.260;2022-12-20T06:58:36;30.43;;;12.23;;
32894;SDS011;19251;49.484;8.260;2022-12-20T07:08:41;21.45;;;11.55;;
32894;SDS011;19251;49.484;8.260;2022-12-20T07:13:43;21.52;;;12.48;;
32894;SDS011;19251;49.484;8.260;2022-12-20T07:18:48;19.75;;;13.27;;
32894;SDS011;19251;49.484;8.260;2022-12-20T07:23:51;22.33;;;12.83;;
32894;SDS011;19251;49.484;8.260;2022-12-20T07:28:55;19.50;;;12.20;;
32894;SDS011;19251;49.484;8.260;2022-12-20T07:33:57;22.23;;;12.37;;
32894;SDS011;19251;49.484;8.260;2022-12-20T07:38:59;20.37;;;11.90;;
32894;SDS011;19251;49.484;8.260;2022-12-20T07:44:01;17.87;;;10.30;;
32894;SDS011;19251;49.484;8.260;2022-12-20T07:54:14;20.17;;;12.57;;
32894;SDS011;19251;49.484;8.260;2022-12-20T07:59:21;20.10;;;12.07;;
32894;SDS011;19251;49.484;8.260;2022-12-20T08:04:35;21.57;;;12.67;;
32894;SDS011;19251;49.484;8.260;2022-12-20T08:09:38;16.73;;;11.45;;
32894;SDS011;19251;49.484;8.260;2022-12-20T08:14:44;21.80;;;13.30;;
32894;SDS011;19251;49.484;8.260;2022-12-20T08:24:49;21.93;;;11.73;;
32894;SDS011;19251;49.484;8.260;2022-12-20T08:29:51;19.95;;;11.75;;
32894;SDS011;19251;49.484;8.260;2022-12-20T08:34:53;14.10;;;8.43;;
32894;SDS011;19251;49.484;8.260;2022-12-20T08:39:56;19.05;;;11.60;;
32894;SDS011;19251;49.484;8.260;2022-12-20T08:44:58;21.65;;;13.00;;
32894;SDS011;19251;49.484;8.260;2022-12-20T08:50:00;23.00;;;12.07;;
32894;SDS011;19251;49.484;8.260;2022-12-20T08:55:02;17.75;;;11.43;;
32894;SDS011;19251;49.484;8.260;2022-12-20T09:00:06;27.00;;;13.73;;
32894;SDS011;19251;49.484;8.260;2022-12-20T09:05:09;24.10;;;11.70;;
32894;SDS011;19251;49.484;8.260;2022-12-20T09:10:11;24.92;;;14.00;;
32894;SDS011;19251;49.484;8.260;2022-12-20T09:15:13;22.02;;;12.60;;
32894;SDS011;19251;49.484;8.260;2022-12-20T09:20:16;25.98;;;13.73;;
32894;SDS011;19251;49.484;8.260;2022-12-20T09:25:18;24.33;;;13.95;;
32894;SDS011;19251;49.484;8.260;2022-12-20T09:35:23;26.73;;;13.17;;
32894;SDS011;19251;49.484;8.260;2022-12-20T09:40:28;24.42;;;13.02;;
32894;SDS011;19251;49.484;8.260;2022-12-20T09:45:34;19.00;;;12.67;;
32894;SDS011;19251;49.484;8.260;2022-12-20T09:50:49;17.55;;;10.75;;
32894;SDS011;19251;49.484;8.260;2022-12-20T09:56:09;16.57;;;10.67;;
32894;SDS011;19251;49.484;8.260;2022-12-20T10:01:15;13.57;;;9.20;;
32894;SDS011;19251;49.484;8.260;2022-12-20T10:12:51;19.55;;;11.10;;
32894;SDS011;19251;49.484;8.260;2022-12-20T10:23:08;15.33;;;10.43;;
32894;SDS011;19251;49.484;8.260;2022-12-20T10:28:33;24.30;;;12.27;;
32894;SDS011;19251;49.484;8.260;2022-12-20T10:33:36;16.35;;;10.85;;
32894;SDS011;19251;49.484;8.260;2022-12-20T10:43:43;17.50;;;11.25;;
32894;SDS011;19251;49.484;8.260;2022-12-20T10:48:50;19.65;;;10.15;;
32894;SDS011;19251;49.484;8.260;2022-12-20T10:54:02;18.08;;;10.68;;
32894;SDS011;19251;49.484;8.260;2022-12-20T11:04:32;15.05;;;10.35;;
32894;SDS011;19251;49.484;8.260;2022-12-20T11:09:36;17.50;;;11.35;;
32894;SDS011;19251;49.484;8.260;2022-12-20T11:14:39;14.73;;;10.00;;
32894;SDS011;19251;49.484;8.260;2022-12-20T11:30:06;16.80;;;9.90;;
32894;SDS011;19251;49.484;8.260;2022-12-20T11:51:47;18.95;;;11.45;;
32894;SDS011;19251;49.484;8.260;2022-12-20T11:56:54;22.20;;;11.50;;
32894;SDS011;19251;49.484;8.260;2022-12-20T12:02:14;16.80;;;10.00;;
32894;SDS011;19251;49.484;8.260;2022-12-20T12:07:35;15.10;;;9.50;;
32894;SDS011;19251;49.484;8.260;2022-12-20T12:12:44;14.90;;;9.65;;
32894;SDS011;19251;49.484;8.260;2022-12-20T12:17:53;13.40;;;8.75;;
32894;SDS011;19251;49.484;8.260;2022-12-20T12:23:02;16.87;;;10.73;;
32894;SDS011;19251;49.484;8.260;2022-12-20T12:28:15;13.43;;;9.17;;
32894;SDS011;19251;49.484;8.260;2022-12-20T12:33:26;16.97;;;9.77;;
32894;SDS011;19251;49.484;8.260;2022-12-20T12:49:52;13.55;;;9.35;;
32894;SDS011;19251;49.484;8.260;2022-12-20T12:54:56;16.40;;;9.95;;
32894;SDS011;19251;49.484;8.260;2022-12-20T12:59:59;13.82;;;9.82;;
32894;SDS011;19251;49.484;8.260;2022-12-20T13:25:27;14.93;;;9.10;;
32894;SDS011;19251;49.484;8.260;2022-12-20T13:30:31;15.30;;;8.45;;
32894;SDS011;19251;49.484;8.260;2022-12-20T13:35:43;18.80;;;8.65;;
32894;SDS011;19251;49.484;8.260;2022-12-20T13:40:59;11.10;;;7.10;;
32894;SDS011;19251;49.484;8.260;2022-12-20T13:51:12;12.10;;;7.90;;
32894;SDS011;19251;49.484;8.260;2022-12-20T13:56:41;14.10;;;8.60;;
32894;SDS011;19251;49.484;8.260;2022-12-20T14:01:54;15.80;;;7.70;;
32894;SDS011;19251;49.484;8.260;2022-12-20T14:06:59;9.30;;;7.30;;
32894;SDS011;19251;49.484;8.260;2022-12-20T14:12:09;13.20;;;8.20;;
32894;SDS011;19251;49.484;8.260;2022-12-20T14:17:31;14.30;;;8.90;;
32894;SDS011;19251;49.484;8.260;2022-12-20T14:22:34;14.75;;;10.40;;
32894;SDS011;19251;49.484;8.260;2022-12-20T14:27:36;11.40;;;8.85;;
32894;SDS011;19251;49.484;8.260;2022-12-20T14:32:39;16.02;;;9.63;;
32894;SDS011;19251;49.484;8.260;2022-12-20T14:37:43;13.23;;;8.50;;
32894;SDS011;19251;49.484;8.260;2022-12-20T14:42:54;11.20;;;7.30;;
32894;SDS011;19251;49.484;8.260;2022-12-20T14:47:58;13.62;;;8.68;;
32894;SDS011;19251;49.484;8.260;2022-12-20T14:53:20;12.90;;;8.30;;
32894;SDS011;19251;49.484;8.260;2022-12-20T14:58:31;10.93;;;7.72;;
32894;SDS011;19251;49.484;8.260;2022-12-20T15:03:35;12.20;;;8.50;;
32894;SDS011;19251;49.484;8.260;2022-12-20T15:08:37;10.43;;;8.57;;
32894;SDS011;19251;49.484;8.260;2022-12-20T15:13:40;21.12;;;13.55;;
32894;SDS011;19251;49.484;8.260;2022-12-20T15:18:44;19.05;;;11.45;;
32894;SDS011;19251;49.484;8.260;2022-12-20T15:23:51;21.70;;;9.80;;
32894;SDS011;19251;49.484;8.260;2022-12-20T15:28:55;14.10;;;10.50;;
32894;SDS011;19251;49.484;8.260;2022-12-20T15:33:58;16.40;;;10.15;;
32894;SDS011;19251;49.484;8.260;2022-12-20T15:39:03;15.70;;;10.25;;
32894;SDS011;19251;49.484;8.260;2022-12-20T15:44:21;13.80;;;9.30;;
32894;SDS011;19251;49.484;8.260;2022-12-20T15:49:29;17.35;;;10.85;;
32894;SDS011;19251;49.484;8.260;2022-12-20T15:54:34;13.85;;;9.00;;
32894;SDS011;19251;49.484;8.260;2022-12-20T15:59:37;15.65;;;9.80;;
32894;SDS011;19251;49.484;8.260;2022-12-20T16:05:00;14.70;;;9.70;;
32894;SDS011;19251;49.484;8.260;2022-12-20T16:10:02;13.65;;;9.10;;
32894;SDS011;19251;49.484;8.260;2022-12-20T16:15:10;10.65;;;8.10;;
32894;SDS011;19251;49.484;8.260;2022-12-20T16:20:20;16.15;;;10.25;;
32894;SDS011;19251;49.484;8.260;2022-12-20T16:25:24;13.95;;;8.43;;
32894;SDS011;19251;49.484;8.260;2022-12-20T16:30:26;15.60;;;9.80;;
32894;SDS011;19251;49.484;8.260;2022-12-20T16:35:30;14.90;;;9.25;;
32894;SDS011;19251;49.484;8.260;2022-12-20T16:40:34;11.87;;;7.83;;
32894;SDS011;19251;49.484;8.260;2022-12-20T16:45:37;15.20;;;7.62;;
32894;SDS011;19251;49.484;8.260;2022-12-20T16:50:39;13.38;;;8.75;;
32894;SDS011;19251;49.484;8.260;2022-12-20T16:55:44;13.57;;;8.47;;
32894;SDS011;19251;49.484;8.260;2022-12-20T17:10:53;12.53;;;8.13;;
32894;SDS011;19251;49.484;8.260;2022-12-20T17:15:55;13.57;;;9.00;;
32894;SDS011;19251;49.484;8.260;2022-12-20T17:20:59;11.27;;;7.28;;
32894;SDS011;19251;49.484;8.260;2022-12-20T17:26:02;16.83;;;10.00;;
32894;SDS011;19251;49.484;8.260;2022-12-20T17:36:26;19.93;;;10.90;;
32894;SDS011;19251;49.484;8.260;2022-12-20T17:41:36;13.47;;;8.57;;
32894;SDS011;19251;49.484;8.260;2022-12-20T17:51:41;12.63;;;6.97;;
32894;SDS011;19251;49.484;8.260;2022-12-20T17:56:44;11.90;;;7.95;;
32894;SDS011;19251;49.484;8.260;2022-12-20T18:01:47;16.50;;;7.20;;
32894;SDS011;19251;49.484;8.260;2022-12-20T18:11:52;21.92;;;11.40;;
32894;SDS011;19251;49.484;8.260;2022-12-20T18:16:55;17.10;;;10.15;;
32894;SDS011;19251;49.484;8.260;2022-12-20T18:21:59;14.35;;;8.65;;
32894;SDS011;19251;49.484;8.260;2022-12-20T18:27:01;22.65;;;9.80;;
32894;SDS011;19251;49.484;8.260;2022-12-20T18:32:03;15.45;;;8.68;;
32894;SDS011;19251;49.484;8.260;2022-12-20T18:42:08;17.55;;;10.00;;
32894;SDS011;19251;49.484;8.260;2022-12-20T18:47:10;20.00;;;11.77;;
32894;SDS011;19251;49.484;8.260;2022-12-20T18:52:12;19.65;;;11.38;;
32894;SDS011;19251;49.484;8.260;2022-12-20T18:57:14;21.55;;;12.50;;
32894;SDS011;19251;49.484;8.260;2022-12-20T19:02:16;19.40;;;11.23;;
32894;SDS011;19251;49.484;8.260;2022-12-20T19:07:19;20.55;;;12.18;;
32894;SDS011;19251;49.484;8.260;2022-12-20T19:12:21;23.70;;;12.02;;
32894;SDS011;19251;49.484;8.260;2022-12-20T19:17:23;28.48;;;14.98;;
32894;SDS011;19251;49.484;8.260;2022-12-20T19:22:25;22.80;;;12.18;;
32894;SDS011;19251;49.484;8.260;2022-12-20T19:27:28;16.35;;;9.93;;
32894;SDS011;19251;49.484;8.260;2022-12-20T19:32:30;17.90;;;9.90;;
32894;SDS011;19251;49.484;8.260;2022-12-20T19:37:33;20.25;;;11.63;;
32894;SDS011;19251;49.484;8.260;2022-12-20T19:42:41;12.55;;;8.90;;
32894;SDS011;19251;49.484;8.260;2022-12-20T19:47:43;23.60;;;9.85;;
32894;SDS011;19251;49.484;8.260;2022-12-20T19:52:46;18.02;;;11.07;;
32894;SDS011;19251;49.484;8.260;2022-12-20T19:57:48;19.65;;;10.82;;
32894;SDS011;19251;49.484;8.260;2022-12-20T20:07:53;16.45;;;9.05;;
32894;SDS011;19251;49.484;8.260;2022-12-20T20:12:55;16.75;;;10.52;;
32894;SDS011;19251;49.484;8.260;2022-12-20T20:17:57;15.77;;;9.52;;
32894;SDS011;19251;49.484;8.260;2022-12-20T20:23:01;19.00;;;10.07;;
32894;SDS011;19251;49.484;8.260;2022-12-20T20:28:03;15.80;;;9.82;;
32894;SDS011;19251;49.484;8.260;2022-12-20T20:33:07;18.70;;;10.15;;
32894;SDS011;19251;49.484;8.260;2022-12-20T20:38:10;18.45;;;9.95;;
32894;SDS011;19251;49.484;8.260;2022-12-20T20:43:12;30.05;;;16.15;;
32894;SDS011;19251;49.484;8.260;2022-12-20T20:48:15;41.63;;;23.42;;
32894;SDS011;19251;49.484;8.260;2022-12-20T20:53:18;39.10;;;22.25;;
32894;SDS011;19251;49.484;8.260;2022-12-20T20:58:20;29.30;;;16.73;;
32894;SDS011;19251;49.484;8.260;2022-12-20T21:03:22;20.95;;;11.48;;
32894;SDS011;19251;49.484;8.260;2022-12-20T21:08:24;21.35;;;10.48;;
32894;SDS011;19251;49.484;8.260;2022-12-20T21:13:26;14.43;;;9.23;;
32894;SDS011;19251;49.484;8.260;2022-12-20T21:18:28;15.50;;;8.10;;
32894;SDS011;19251;49.484;8.260;2022-12-20T21:23:30;11.57;;;7.78;;
32894;SDS011;19251;49.484;8.260;2022-12-20T21:28:33;12.18;;;8.32;;
32894;SDS011;19251;49.484;8.260;2022-12-20T21:33:36;16.25;;;9.40;;
32894;SDS011;19251;49.484;8.260;2022-12-20T21:43:41;13.80;;;8.30;;
32894;SDS011;19251;49.484;8.260;2022-12-20T21:48:44;10.32;;;6.78;;
32894;SDS011;19251;49.484;8.260;2022-12-20T21:53:47;15.20;;;8.05;;
32894;SDS011;19251;49.484;8.260;2022-12-20T21:58:51;13.10;;;7.50;;
32894;SDS011;19251;49.484;8.260;2022-12-20T22:03:55;13.82;;;8.82;;
32894;SDS011;19251;49.484;8.260;2022-12-20T22:09:00;13.60;;;7.85;;
32894;SDS011;19251;49.484;8.260;2022-12-20T22:14:06;16.90;;;10.40;;
32894;SDS011;19251;49.484;8.260;2022-12-20T22:19:12;15.70;;;9.55;;
32894;SDS011;19251;49.484;8.260;2022-12-20T22:24:15;19.15;;;8.70;;
32894;SDS011;19251;49.484;8.260;2022-12-20T22:29:17;13.02;;;9.05;;
32894;SDS011;19251;49.484;8.260;2022-12-20T22:34:20;21.55;;;10.40;;
32894;SDS011;19251;49.484;8.260;2022-12-20T22:39:22;22.02;;;11.10;;
32894;SDS011;19251;49.484;8.260;2022-12-20T22:44:25;16.17;;;10.35;;
32894;SDS011;19251;49.484;8.260;2022-12-20T22:49:27;17.50;;;9.95;;
32894;SDS011;19251;49.484;8.260;2022-12-20T22:54:29;21.42;;;12.02;;
32894;SDS011;19251;49.484;8.260;2022-12-20T22:59:31;22.73;;;12.40;;
32894;SDS011;19251;49.484;8.260;2022-12-20T23:04:35;25.70;;;12.45;;
32894;SDS011;19251;49.484;8.260;2022-12-20T23:09:37;17.58;;;10.35;;
32894;SDS011;19251;49.484;8.260;2022-12-20T23:14:39;26.55;;;14.25;;
32894;SDS011;19251;49.484;8.260;2022-12-20T23:20:05;14.70;;;10.75;;
32894;SDS011;19251;49.484;8.260;2022-12-20T23:25:26;16.95;;;10.35;;
32894;SDS011;19251;49.484;8.260;2022-12-20T23:30:28;14.95;;;9.82;;
32894;SDS011;19251;49.484;8.260;2022-12-20T23:35:31;14.82;;;9.73;;
32894;SDS011;19251;49.484;8.260;2022-12-20T23:40:33;18.95;;;9.73;;
32894;SDS011;19251;49.484;8.260;2022-12-20T23:45:35;13.90;;;9.43;;
32894;SDS011;19251;49.484;8.260;2022-12-20T23:50:37;13.45;;;10.23;;
32894;SDS011;19251;49.484;8.260;2022-12-20T23:55:40;14.32;;;9.25;;
